createdAt,value
2019-06-15T00:01:08.798Z,30.23
2019-06-15T00:03:38.643Z,31.60
2019-06-15T00:06:08.149Z,31.30
2019-06-15T00:08:37.928Z,29.90
2019-06-15T00:11:07.419Z,29.30
2019-06-15T00:13:37.265Z,32.20
2019-06-15T00:16:07.219Z,31.57
2019-06-15T00:18:36.714Z,33.77
2019-06-15T00:21:06.360Z,36.23
2019-06-15T00:23:35.762Z,37.67
2019-06-15T00:26:05.670Z,36.77
2019-06-15T00:28:35.161Z,36.43
2019-06-15T00:31:04.871Z,36.60
2019-06-15T00:33:34.358Z,35.97
2019-06-15T00:36:03.891Z,35.17
2019-06-15T00:38:33.399Z,36.80
2019-06-15T00:41:02.862Z,38.53
2019-06-15T00:43:33.064Z,36.97
2019-06-15T00:46:02.509Z,38.67
2019-06-15T00:48:32.029Z,38.97
2019-06-15T00:51:01.510Z,38.20
2019-06-15T00:53:30.991Z,38.77
2019-06-15T00:56:00.380Z,41.10
2019-06-15T00:58:30.342Z,40.60
2019-06-15T01:01:00.098Z,38.10
2019-06-15T01:03:29.569Z,37.67
2019-06-15T01:05:59.362Z,38.83
2019-06-15T01:08:28.853Z,38.07
2019-06-15T01:10:58.329Z,42.07
2019-06-15T01:13:28.542Z,40.20
2019-06-15T01:15:58.074Z,43.27
2019-06-15T01:18:27.608Z,40.87
2019-06-15T01:20:57.401Z,42.87
2019-06-15T01:23:26.942Z,40.70
2019-06-15T01:25:56.414Z,43.40
2019-06-15T01:28:26.611Z,41.60
2019-06-15T01:30:56.002Z,40.30
2019-06-15T01:33:25.488Z,39.13
2019-06-15T01:35:55.019Z,39.70
2019-06-15T01:38:24.520Z,42.47
2019-06-15T01:40:54.368Z,39.60
2019-06-15T01:43:24.168Z,39.60
2019-06-15T01:45:54.034Z,37.10
2019-06-15T01:48:23.482Z,37.93
2019-06-15T01:50:53.283Z,35.97
2019-06-15T01:53:22.747Z,33.03
2019-06-15T01:55:52.235Z,33.70
2019-06-15T01:58:22.032Z,34.57
2019-06-15T02:00:51.547Z,33.37
2019-06-15T02:03:20.986Z,36.57
2019-06-15T02:06:11.184Z,36.10
2019-06-15T02:08:40.666Z,36.30
2019-06-15T02:11:10.880Z,36.97
2019-06-15T02:13:40.317Z,34.27
2019-06-15T02:16:09.815Z,32.57
2019-06-15T02:18:39.383Z,33.43
2019-06-15T02:21:09.374Z,39.83
2019-06-15T02:23:38.834Z,44.33
2019-06-15T02:26:08.316Z,50.93
2019-06-15T02:28:37.773Z,51.30
2019-06-15T02:31:07.241Z,49.67
2019-06-15T02:33:36.701Z,50.53
2019-06-15T02:36:06.323Z,58.53
2019-06-15T02:38:36.421Z,61.80
2019-06-15T02:41:05.886Z,54.00
2019-06-15T02:43:35.834Z,47.13
2019-06-15T02:46:05.285Z,46.93
2019-06-15T02:48:35.093Z,45.07
2019-06-15T02:51:04.633Z,42.43
2019-06-15T02:53:34.396Z,38.43
2019-06-15T02:56:04.201Z,35.83
2019-06-15T02:58:33.678Z,35.43
2019-06-15T03:01:07.610Z,35.00
2019-06-15T03:03:37.125Z,34.53
2019-06-15T03:06:07.164Z,36.60
2019-06-15T03:08:36.630Z,30.73
2019-06-15T03:11:06.705Z,32.73
2019-06-15T03:13:37.019Z,31.20
2019-06-15T03:16:07.221Z,31.23
2019-06-15T03:18:36.722Z,33.27
2019-06-15T03:21:06.248Z,35.80
2019-06-15T03:23:35.713Z,36.27
2019-06-15T03:26:06.189Z,33.30
2019-06-15T03:28:35.792Z,31.53
2019-06-15T03:31:05.669Z,30.67
2019-06-15T03:33:35.473Z,29.17
2019-06-15T03:36:05.394Z,27.13
2019-06-15T03:38:35.131Z,29.47
2019-06-15T03:41:05.020Z,35.10
2019-06-15T03:43:35.008Z,33.33
2019-06-15T03:46:04.631Z,33.67
2019-06-15T03:48:34.172Z,32.17
2019-06-15T03:51:03.645Z,33.77
2019-06-15T03:53:33.626Z,34.73
2019-06-15T03:56:03.114Z,40.47
2019-06-15T03:58:32.833Z,44.07
2019-06-15T04:01:18.682Z,46.20
2019-06-15T04:03:48.489Z,42.77
2019-06-15T04:06:17.945Z,45.10
2019-06-15T04:08:47.562Z,43.13
2019-06-15T04:11:17.019Z,44.27
2019-06-15T04:13:46.975Z,39.17
2019-06-15T04:16:16.857Z,37.57
2019-06-15T04:18:46.639Z,35.97
2019-06-15T04:21:16.130Z,35.40
2019-06-15T04:23:45.646Z,33.50
2019-06-15T04:26:15.032Z,32.77
2019-06-15T04:28:44.761Z,32.63
2019-06-15T04:31:14.446Z,34.30
2019-06-15T04:33:43.942Z,35.97
2019-06-15T04:36:13.426Z,35.07
2019-06-15T04:38:43.260Z,34.70
2019-06-15T04:41:13.333Z,34.10
2019-06-15T04:43:42.814Z,35.63
2019-06-15T04:46:13.033Z,35.40
2019-06-15T04:48:42.814Z,34.97
2019-06-15T04:51:12.205Z,36.63
2019-06-15T04:53:41.674Z,37.97
2019-06-15T04:56:11.505Z,40.30
2019-06-15T04:58:40.942Z,41.50
2019-06-15T05:01:10.413Z,43.77
2019-06-15T05:03:39.904Z,40.83
2019-06-15T05:06:09.354Z,45.70
2019-06-15T05:08:38.759Z,43.97
2019-06-15T05:11:08.252Z,44.60
2019-06-15T05:13:37.778Z,38.47
2019-06-15T05:16:07.233Z,39.37
2019-06-15T05:18:36.735Z,35.23
2019-06-15T05:21:06.521Z,39.03
2019-06-15T05:23:36.627Z,42.47
2019-06-15T05:26:06.326Z,39.17
2019-06-15T05:28:35.951Z,41.43
2019-06-15T05:31:05.729Z,37.83
2019-06-15T05:33:35.521Z,35.70
2019-06-15T05:36:05.416Z,36.93
2019-06-15T05:38:35.597Z,37.03
2019-06-15T05:41:05.105Z,38.47
2019-06-15T05:43:34.571Z,39.10
2019-06-15T05:46:04.082Z,37.83
2019-06-15T05:48:33.536Z,42.27
2019-06-15T05:51:03.377Z,40.67
2019-06-15T05:53:33.356Z,37.97
2019-06-15T05:56:02.898Z,36.37
2019-06-15T05:58:32.367Z,37.50
2019-06-15T06:01:01.851Z,39.70
2019-06-15T06:03:31.322Z,42.17
2019-06-15T06:06:00.930Z,39.20
2019-06-15T06:08:30.419Z,36.60
2019-06-15T06:10:59.917Z,32.67
2019-06-15T06:13:29.317Z,31.37
2019-06-15T06:15:58.906Z,30.57
2019-06-15T06:18:28.344Z,31.17
2019-06-15T06:20:57.745Z,32.63
2019-06-15T06:23:27.217Z,27.53
2019-06-15T06:25:56.726Z,27.23
2019-06-15T06:28:26.206Z,28.47
2019-06-15T06:30:56.003Z,25.93
2019-06-15T06:33:25.477Z,26.50
2019-06-15T06:35:54.887Z,27.23
2019-06-15T06:38:24.414Z,26.07
2019-06-15T06:40:53.899Z,26.83
2019-06-15T06:43:23.358Z,24.17
2019-06-15T06:45:52.784Z,24.97
2019-06-15T06:48:22.251Z,25.93
2019-06-15T06:50:51.749Z,24.43
2019-06-15T06:53:21.224Z,24.00
2019-06-15T06:55:50.854Z,23.50
2019-06-15T06:58:20.708Z,23.37
2019-06-15T07:00:50.559Z,22.43
2019-06-15T07:03:20.032Z,23.27
2019-06-15T07:05:49.512Z,22.03
2019-06-15T07:08:18.982Z,20.87
2019-06-15T07:10:48.761Z,21.73
2019-06-15T07:13:18.229Z,21.53
2019-06-15T07:15:47.728Z,20.03
2019-06-15T07:18:17.325Z,20.30
2019-06-15T07:20:47.086Z,20.00
2019-06-15T07:23:16.953Z,20.80
2019-06-15T07:25:46.354Z,19.63
2019-06-15T07:28:16.131Z,19.47
2019-06-15T07:30:45.582Z,18.50
2019-06-15T07:33:15.144Z,16.07
2019-06-15T07:35:44.670Z,15.20
2019-06-15T07:38:14.046Z,15.03
2019-06-15T07:40:43.513Z,13.10
2019-06-15T07:43:12.946Z,13.20
2019-06-15T07:45:43.616Z,13.13
2019-06-15T07:48:13.394Z,17.83
2019-06-15T07:50:42.863Z,16.77
2019-06-15T07:53:12.737Z,15.70
2019-06-15T07:55:42.132Z,20.17
2019-06-15T07:58:24.097Z,24.03
2019-06-15T08:00:42.794Z,21.17
2019-06-15T08:03:12.303Z,23.07
2019-06-15T08:05:42.058Z,21.73
2019-06-15T08:08:11.913Z,20.73
2019-06-15T08:10:41.365Z,18.33
2019-06-15T08:13:10.904Z,19.23
2019-06-15T08:15:40.341Z,16.73
2019-06-15T08:18:09.923Z,13.83
2019-06-15T08:20:39.436Z,14.07
2019-06-15T08:23:08.936Z,15.77
2019-06-15T08:25:38.403Z,13.27
2019-06-15T08:28:07.918Z,13.73
2019-06-15T08:30:41.975Z,12.00
2019-06-15T08:33:11.611Z,11.40
2019-06-15T08:35:41.158Z,11.37
2019-06-15T08:38:11.014Z,11.13
2019-06-15T08:40:40.867Z,10.13
2019-06-15T08:43:11.336Z,12.00
2019-06-15T08:45:41.141Z,12.20
2019-06-15T08:48:38.627Z,10.63
2019-06-15T08:51:08.533Z,10.50
2019-06-15T08:53:58.589Z,11.20
2019-06-15T08:56:28.271Z,12.60
2019-06-15T08:58:58.459Z,14.03
2019-06-15T09:01:27.873Z,13.60
2019-06-15T09:03:57.405Z,13.30
2019-06-15T09:06:27.274Z,13.33
2019-06-15T09:08:57.169Z,12.60
2019-06-15T09:11:26.953Z,10.43
2019-06-15T09:13:56.450Z,11.47
2019-06-15T09:16:26.026Z,11.33
2019-06-15T09:18:57.431Z,11.20
2019-06-15T09:21:26.583Z,10.73
2019-06-15T09:23:56.546Z,10.43
2019-06-15T09:26:26.490Z,10.23
2019-06-15T09:29:10.344Z,10.47
2019-06-15T09:31:27.601Z,9.50
2019-06-15T09:33:57.288Z,10.30
2019-06-15T09:36:26.772Z,10.20
2019-06-15T09:38:56.792Z,10.70
2019-06-15T09:41:26.706Z,9.73
2019-06-15T09:43:56.189Z,10.70
2019-06-15T09:46:25.706Z,11.50
2019-06-15T09:48:55.541Z,11.23
2019-06-15T09:51:25.426Z,11.67
2019-06-15T09:53:54.968Z,10.97
2019-06-15T09:56:24.445Z,11.83
2019-06-15T09:58:53.855Z,13.13
2019-06-15T10:01:23.637Z,12.93
2019-06-15T10:03:53.092Z,16.63
2019-06-15T10:06:22.987Z,21.83
2019-06-15T10:08:53.278Z,19.77
2019-06-15T10:11:23.606Z,17.83
2019-06-15T10:13:53.457Z,16.32
2019-06-15T10:16:22.887Z,10.53
2019-06-15T10:18:52.349Z,9.38
2019-06-15T10:21:22.375Z,8.53
2019-06-15T10:23:51.830Z,7.70
2019-06-15T10:26:21.235Z,7.47
2019-06-15T10:28:50.700Z,8.05
2019-06-15T10:31:20.199Z,5.70
2019-06-15T10:33:49.692Z,6.10
2019-06-15T10:36:19.176Z,6.20
2019-06-15T10:38:48.669Z,5.33
2019-06-15T10:41:18.107Z,6.87
2019-06-15T10:43:47.519Z,6.10
2019-06-15T10:46:17.007Z,6.55
2019-06-15T10:48:46.550Z,6.20
2019-06-15T10:51:16.036Z,6.33
2019-06-15T10:53:45.522Z,6.00
2019-06-15T10:56:15.439Z,5.30
2019-06-15T10:58:44.905Z,5.33
2019-06-15T11:01:14.813Z,4.90
2019-06-15T11:03:44.661Z,5.35
2019-06-15T11:06:14.451Z,4.90
2019-06-15T11:08:44.298Z,5.10
2019-06-15T11:11:21.766Z,5.42
2019-06-15T11:13:52.187Z,5.53
2019-06-15T11:16:21.753Z,5.42
2019-06-15T11:18:51.237Z,5.72
2019-06-15T11:21:21.039Z,5.65
2019-06-15T11:23:50.541Z,5.05
2019-06-15T11:26:19.927Z,5.92
2019-06-15T11:28:50.077Z,5.92
2019-06-15T11:31:19.591Z,6.75
2019-06-15T11:33:49.033Z,5.97
2019-06-15T11:36:18.610Z,5.92
2019-06-15T11:38:48.765Z,6.35
2019-06-15T11:41:18.247Z,6.47
2019-06-15T11:43:48.502Z,6.80
2019-06-15T11:46:18.379Z,6.53
2019-06-15T11:48:48.272Z,7.42
2019-06-15T11:51:17.722Z,6.62
2019-06-15T11:53:47.545Z,7.50
2019-06-15T11:56:17.125Z,7.15
2019-06-15T11:58:46.593Z,7.45
2019-06-15T12:01:18.857Z,6.72
2019-06-15T12:03:47.273Z,7.20
2019-06-15T12:06:16.777Z,7.67
2019-06-15T12:08:46.881Z,7.25
2019-06-15T12:11:16.706Z,8.23
2019-06-15T12:13:46.125Z,6.92
2019-06-15T12:16:15.887Z,7.72
2019-06-15T12:18:45.870Z,6.60
2019-06-15T12:21:15.312Z,7.53
2019-06-15T12:23:44.771Z,7.58
2019-06-15T12:26:14.257Z,7.45
2019-06-15T12:28:43.727Z,6.62
2019-06-15T12:31:13.498Z,6.53
2019-06-15T12:33:43.292Z,7.28
2019-06-15T12:36:19.174Z,7.17
2019-06-15T12:38:44.168Z,7.12
2019-06-15T12:41:13.672Z,7.37
2019-06-15T12:43:43.151Z,6.80
2019-06-15T12:46:12.698Z,6.75
2019-06-15T12:48:42.408Z,5.53
2019-06-15T12:51:11.837Z,5.95
2019-06-15T12:53:41.290Z,5.10
2019-06-15T12:56:10.797Z,6.58
2019-06-15T12:58:40.734Z,5.58
2019-06-15T13:01:10.192Z,8.78
2019-06-15T13:03:40.117Z,8.13
2019-06-15T13:06:09.998Z,7.80
2019-06-15T13:08:39.474Z,7.20
2019-06-15T13:11:09.316Z,7.33
2019-06-15T13:13:38.776Z,7.47
2019-06-15T13:16:08.701Z,7.87
2019-06-15T13:18:38.463Z,6.92
2019-06-15T13:21:07.962Z,7.42
2019-06-15T13:23:37.769Z,7.72
2019-06-15T13:26:07.279Z,7.22
2019-06-15T13:28:37.165Z,6.85
2019-06-15T13:31:17.692Z,6.80
2019-06-15T13:33:38.544Z,7.08
2019-06-15T13:36:08.318Z,8.05
2019-06-15T13:38:37.797Z,8.00
2019-06-15T13:41:07.325Z,7.28
2019-06-15T13:43:37.112Z,7.40
2019-06-15T13:46:07.051Z,7.33
2019-06-15T13:48:36.915Z,7.45
2019-06-15T13:51:06.730Z,7.10
2019-06-15T13:53:36.226Z,5.30
2019-06-15T13:56:05.748Z,5.50
2019-06-15T13:58:35.716Z,5.20
2019-06-15T14:01:05.109Z,5.58
2019-06-15T14:03:34.611Z,5.60
2019-06-15T14:06:04.075Z,5.47
2019-06-15T14:08:33.623Z,5.60
2019-06-15T14:11:03.462Z,6.42
2019-06-15T14:13:32.994Z,5.55
2019-06-15T14:16:03.202Z,6.58
2019-06-15T14:18:32.685Z,6.42
2019-06-15T14:21:02.561Z,7.53
2019-06-15T14:23:32.466Z,5.97
2019-06-15T14:26:01.897Z,5.85
2019-06-15T14:28:31.420Z,5.20
2019-06-15T14:31:00.876Z,6.28
2019-06-15T14:33:30.424Z,5.95
2019-06-15T14:35:59.902Z,6.78
2019-06-15T14:38:29.795Z,7.83
2019-06-15T14:40:59.769Z,7.22
2019-06-15T14:43:29.272Z,6.47
2019-06-15T14:45:59.945Z,5.92
2019-06-15T14:48:29.742Z,5.50
2019-06-15T14:50:59.193Z,5.90
2019-06-15T14:53:28.674Z,6.20
2019-06-15T14:55:58.127Z,5.67
2019-06-15T14:58:28.293Z,6.08
2019-06-15T15:00:57.732Z,6.17
2019-06-15T15:03:27.134Z,5.58
2019-06-15T15:05:56.573Z,6.25
2019-06-15T15:08:26.580Z,5.58
2019-06-15T15:10:56.368Z,5.37
2019-06-15T15:13:26.393Z,5.50
2019-06-15T15:15:56.969Z,5.33
2019-06-15T15:18:27.140Z,5.40
2019-06-15T15:20:57.507Z,5.60
2019-06-15T15:23:27.069Z,5.40
2019-06-15T15:25:57.556Z,5.70
2019-06-15T15:28:30.984Z,5.33
2019-06-15T15:30:59.310Z,5.83
2019-06-15T15:33:29.330Z,6.00
2019-06-15T15:35:59.145Z,6.20
2019-06-15T15:38:28.631Z,6.47
2019-06-15T15:40:58.626Z,5.95
2019-06-15T15:43:28.411Z,6.03
2019-06-15T15:45:58.229Z,5.87
2019-06-15T15:48:28.166Z,5.92
2019-06-15T15:50:58.076Z,6.05
2019-06-15T15:53:30.662Z,5.78
2019-06-15T15:56:00.513Z,6.08
2019-06-15T15:58:30.358Z,5.80
2019-06-15T16:00:59.867Z,6.08
2019-06-15T16:03:29.412Z,6.10
2019-06-15T16:05:59.305Z,6.20
2019-06-15T16:08:29.073Z,5.80
2019-06-15T16:10:58.562Z,6.25
2019-06-15T16:13:28.045Z,6.30
2019-06-15T16:15:57.546Z,6.22
2019-06-15T16:18:27.009Z,5.92
2019-06-15T16:20:56.482Z,5.75
2019-06-15T16:23:25.952Z,6.42
2019-06-15T16:25:55.440Z,6.12
2019-06-15T16:28:26.352Z,6.25
2019-06-15T16:31:08.646Z,6.47
2019-06-15T16:33:27.414Z,5.87
2019-06-15T16:35:57.036Z,6.08
2019-06-15T16:38:27.481Z,5.87
2019-06-15T16:40:57.209Z,5.92
2019-06-15T16:43:28.786Z,6.20
2019-06-15T16:45:57.739Z,6.15
2019-06-15T16:48:27.805Z,6.20
2019-06-15T16:50:57.884Z,8.20
2019-06-15T16:53:27.816Z,6.40
2019-06-15T16:55:57.530Z,6.50
2019-06-15T16:58:27.128Z,6.10
2019-06-15T17:00:57.053Z,6.20
2019-06-15T17:03:29.367Z,6.75
2019-06-15T17:05:57.929Z,6.58
2019-06-15T17:08:27.624Z,6.80
2019-06-15T17:10:57.089Z,6.47
2019-06-15T17:13:26.578Z,6.90
2019-06-15T17:15:57.159Z,6.33
2019-06-15T17:18:26.716Z,7.80
2019-06-15T17:20:56.694Z,7.83
2019-06-15T17:26:29.760Z,9.18
2019-06-15T17:28:59.218Z,8.68
2019-06-15T17:31:28.980Z,9.20
2019-06-15T17:33:58.376Z,9.68
2019-06-15T17:36:27.923Z,8.60
2019-06-15T17:38:57.709Z,9.93
2019-06-15T17:41:27.276Z,8.73
2019-06-15T17:43:57.202Z,8.55
2019-06-15T17:46:29.905Z,9.80
2019-06-15T17:49:00.033Z,10.30
2019-06-15T17:51:33.014Z,9.45
2019-06-15T17:54:02.484Z,8.85
2019-06-15T17:56:31.888Z,8.73
2019-06-15T17:59:01.414Z,8.53
2019-06-15T18:01:30.904Z,10.13
2019-06-15T18:04:00.436Z,9.30
2019-06-15T18:06:30.256Z,9.03
2019-06-15T18:08:59.846Z,9.58
2019-06-15T18:11:29.358Z,8.70
2019-06-15T18:13:58.846Z,9.43
2019-06-15T18:16:30.543Z,8.53
2019-06-15T18:18:59.495Z,8.93
2019-06-15T18:21:28.986Z,8.85
2019-06-15T18:23:58.401Z,8.53
2019-06-15T18:26:27.802Z,9.40
2019-06-15T18:28:57.622Z,8.55
2019-06-15T18:31:27.433Z,8.15
2019-06-15T18:34:06.454Z,8.43
2019-06-15T18:36:28.115Z,8.80
2019-06-15T18:38:57.709Z,8.55
2019-06-15T18:41:27.435Z,8.55
2019-06-15T18:43:57.046Z,8.80
2019-06-15T18:46:27.264Z,8.33
2019-06-15T18:48:57.111Z,8.07
2019-06-15T18:51:27.150Z,7.90
2019-06-15T18:53:59.565Z,8.80
2019-06-15T18:56:29.343Z,9.20
2019-06-15T18:58:58.957Z,9.87
2019-06-15T19:01:28.420Z,10.87
2019-06-15T19:03:57.990Z,10.20
2019-06-15T19:06:27.815Z,8.83
2019-06-15T19:08:57.554Z,9.10
2019-06-15T19:11:27.484Z,9.67
2019-06-15T19:13:57.385Z,10.70
2019-06-15T19:16:26.787Z,9.33
2019-06-15T19:18:56.720Z,8.77
2019-06-15T19:21:26.279Z,7.83
2019-06-15T19:23:56.541Z,9.53
2019-06-15T19:26:26.906Z,12.20
2019-06-15T19:28:56.491Z,13.23
2019-06-15T19:31:27.825Z,16.27
2019-06-15T19:33:57.154Z,14.40
2019-06-15T19:36:26.773Z,12.70
2019-06-15T19:38:57.163Z,10.70
2019-06-15T19:41:26.772Z,10.63
2019-06-15T19:43:57.125Z,8.30
2019-06-15T19:46:26.640Z,8.07
2019-06-15T19:48:56.159Z,8.90
2019-06-15T19:51:26.390Z,9.90
2019-06-15T19:53:58.181Z,10.03
2019-06-15T19:56:27.750Z,9.40
2019-06-15T19:58:57.902Z,9.53
2019-06-15T20:01:27.465Z,9.83
2019-06-15T20:03:57.470Z,9.67
2019-06-15T20:06:27.388Z,10.70
2019-06-15T20:08:57.277Z,11.63
2019-06-15T20:11:26.698Z,10.10
2019-06-15T20:13:56.390Z,10.20
2019-06-15T20:16:25.967Z,10.87
2019-06-15T20:18:56.269Z,10.90
2019-06-15T20:21:25.954Z,11.13
2019-06-15T20:23:56.598Z,11.07
2019-06-15T20:26:26.793Z,10.90
2019-06-15T20:28:56.545Z,11.37
2019-06-15T20:31:26.031Z,12.10
2019-06-15T20:33:57.019Z,11.17
2019-06-15T20:36:27.116Z,10.97
2019-06-15T20:38:58.802Z,11.37
2019-06-15T20:41:28.221Z,11.47
2019-06-15T20:43:57.725Z,11.53
2019-06-15T20:46:27.323Z,13.33
2019-06-15T20:48:57.144Z,12.50
2019-06-15T20:51:26.588Z,12.60
2019-06-15T20:53:56.707Z,11.90
2019-06-15T20:56:26.749Z,12.00
2019-06-15T20:58:57.216Z,11.80
2019-06-15T21:01:26.816Z,12.17
2019-06-15T21:03:56.725Z,13.23
2019-06-15T21:06:26.389Z,12.90
2019-06-15T21:08:55.879Z,13.90
2019-06-15T21:11:26.528Z,12.67
2019-06-15T21:13:56.122Z,12.53
2019-06-15T21:16:26.226Z,12.60
2019-06-15T21:18:57.106Z,14.40
2019-06-15T21:21:27.676Z,12.73
2019-06-15T21:23:57.600Z,12.80
2019-06-15T21:26:27.309Z,12.17
2019-06-15T21:28:56.700Z,12.03
2019-06-15T21:31:26.362Z,14.70
2019-06-15T21:33:56.549Z,13.40
2019-06-15T21:36:26.231Z,18.10
2019-06-15T21:38:56.259Z,18.87
2019-06-15T21:41:26.334Z,19.40
2019-06-15T21:43:56.614Z,18.57
2019-06-15T21:46:26.682Z,17.30
2019-06-15T21:48:56.501Z,19.20
2019-06-15T21:51:27.037Z,21.43
2019-06-15T21:53:56.613Z,20.67
2019-06-15T21:56:28.987Z,20.00
2019-06-15T21:58:57.161Z,21.20
2019-06-15T22:01:37.381Z,22.40
2019-06-15T22:04:07.650Z,21.67
2019-06-15T22:06:37.696Z,22.30
2019-06-15T22:09:13.073Z,25.90
2019-06-15T22:11:43.655Z,26.30
2019-06-15T22:14:13.417Z,24.67
2019-06-15T22:16:42.971Z,24.83
2019-06-15T22:19:12.473Z,26.27
2019-06-15T22:21:41.929Z,25.30
2019-06-15T22:24:11.450Z,26.87
2019-06-15T22:26:40.929Z,27.10
2019-06-15T22:29:10.398Z,25.47
2019-06-15T22:31:40.232Z,22.47
2019-06-15T22:34:09.693Z,22.50
2019-06-15T22:36:39.174Z,20.93
2019-06-15T22:39:08.704Z,19.37
2019-06-15T22:41:38.087Z,22.47
2019-06-15T22:44:07.962Z,20.03
2019-06-15T22:46:37.438Z,18.70
2019-06-15T22:49:07.002Z,21.53
2019-06-15T22:51:36.928Z,21.93
2019-06-15T22:54:06.858Z,20.50
2019-06-15T22:56:37.018Z,21.77
2019-06-15T22:59:07.267Z,22.33
2019-06-15T23:01:36.735Z,22.53
2019-06-15T23:04:06.751Z,20.97
2019-06-15T23:06:40.635Z,17.30
2019-06-15T23:09:07.711Z,20.03
2019-06-15T23:11:37.176Z,20.97
2019-06-15T23:14:06.903Z,21.27
2019-06-15T23:16:36.950Z,20.87
2019-06-15T23:19:07.766Z,20.67
2019-06-15T23:21:37.561Z,22.40
2019-06-15T23:24:07.011Z,21.43
2019-06-15T23:26:37.004Z,22.47
2019-06-15T23:29:06.875Z,19.73
2019-06-15T23:31:36.984Z,17.13
2019-06-15T23:34:07.078Z,18.10
2019-06-15T23:36:52.754Z,17.50
2019-06-15T23:39:10.549Z,15.53
2019-06-15T23:41:40.365Z,15.43
2019-06-15T23:44:09.887Z,18.90
2019-06-15T23:46:39.351Z,18.73
2019-06-15T23:49:09.420Z,20.80
2019-06-15T23:51:38.841Z,21.80
2019-06-15T23:54:09.118Z,22.03
2019-06-15T23:56:38.606Z,20.53
2019-06-15T23:59:08.053Z,19.43
